sensor_id;sensor_type;location;lat;lon;timestamp;P1;durP1;ratioP1;P2;durP2;ratioP2
41311;SDS011;27061;41.648;24.568;2023-02-28T00:00:44;58.40;;;6.32;;
41311;SDS011;27061;41.648;24.568;2023-02-28T00:03:11;46.90;;;7.95;;
41311;SDS011;27061;41.648;24.568;2023-02-28T00:05:39;60.33;;;6.35;;
41311;SDS011;27061;41.648;24.568;2023-02-28T00:08:06;60.72;;;6.53;;
41311;SDS011;27061;41.648;24.568;2023-02-28T00:10:33;49.92;;;6.13;;
41311;SDS011;27061;41.648;24.568;2023-02-28T00:13:02;50.83;;;6.18;;
41311;SDS011;27061;41.648;24.568;2023-02-28T00:15:31;45.78;;;5.93;;
41311;SDS011;27061;41.648;24.568;2023-02-28T00:17:59;51.10;;;5.63;;
41311;SDS011;27061;41.648;24.568;2023-02-28T00:20:26;49.15;;;5.93;;
41311;SDS011;27061;41.648;24.568;2023-02-28T00:22:54;45.67;;;6.65;;
41311;SDS011;27061;41.648;24.568;2023-02-28T00:25:23;41.50;;;5.22;;
41311;SDS011;27061;41.648;24.568;2023-02-28T00:27:51;67.40;;;7.75;;
41311;SDS011;27061;41.648;24.568;2023-02-28T00:30:20;51.13;;;6.45;;
41311;SDS011;27061;41.648;24.568;2023-02-28T00:32:48;34.92;;;5.30;;
41311;SDS011;27061;41.648;24.568;2023-02-28T00:35:24;43.15;;;5.65;;
41311;SDS011;27061;41.648;24.568;2023-02-28T00:37:51;55.05;;;8.07;;
41311;SDS011;27061;41.648;24.568;2023-02-28T00:40:18;53.78;;;6.20;;
41311;SDS011;27061;41.648;24.568;2023-02-28T00:42:45;38.35;;;6.28;;
41311;SDS011;27061;41.648;24.568;2023-02-28T00:45:12;61.28;;;7.82;;
41311;SDS011;27061;41.648;24.568;2023-02-28T00:47:39;48.22;;;7.10;;
41311;SDS011;27061;41.648;24.568;2023-02-28T00:50:07;62.55;;;6.63;;
41311;SDS011;27061;41.648;24.568;2023-02-28T00:52:35;25.58;;;4.82;;
41311;SDS011;27061;41.648;24.568;2023-02-28T00:55:02;39.35;;;5.95;;
41311;SDS011;27061;41.648;24.568;2023-02-28T00:57:30;43.53;;;6.78;;
41311;SDS011;27061;41.648;24.568;2023-02-28T00:59:57;57.65;;;6.78;;
41311;SDS011;27061;41.648;24.568;2023-02-28T01:02:24;56.97;;;6.03;;
41311;SDS011;27061;41.648;24.568;2023-02-28T01:04:51;43.00;;;5.15;;
41311;SDS011;27061;41.648;24.568;2023-02-28T01:07:18;55.05;;;5.80;;
41311;SDS011;27061;41.648;24.568;2023-02-28T01:09:46;52.53;;;4.90;;
41311;SDS011;27061;41.648;24.568;2023-02-28T01:12:13;59.70;;;6.50;;
41311;SDS011;27061;41.648;24.568;2023-02-28T01:14:40;65.95;;;7.85;;
41311;SDS011;27061;41.648;24.568;2023-02-28T01:17:07;56.00;;;7.32;;
41311;SDS011;27061;41.648;24.568;2023-02-28T01:19:35;66.35;;;6.13;;
41311;SDS011;27061;41.648;24.568;2023-02-28T01:22:03;53.60;;;6.78;;
41311;SDS011;27061;41.648;24.568;2023-02-28T01:24:31;57.60;;;7.07;;
41311;SDS011;27061;41.648;24.568;2023-02-28T01:26:59;50.63;;;7.15;;
41311;SDS011;27061;41.648;24.568;2023-02-28T01:29:27;51.17;;;5.35;;
41311;SDS011;27061;41.648;24.568;2023-02-28T01:31:54;44.15;;;6.15;;
41311;SDS011;27061;41.648;24.568;2023-02-28T01:34:21;52.55;;;6.47;;
41311;SDS011;27061;41.648;24.568;2023-02-28T01:36:50;38.25;;;5.38;;
41311;SDS011;27061;41.648;24.568;2023-02-28T01:39:18;51.28;;;6.10;;
41311;SDS011;27061;41.648;24.568;2023-02-28T01:41:45;69.20;;;7.53;;
41311;SDS011;27061;41.648;24.568;2023-02-28T01:47:16;58.50;;;7.05;;
41311;SDS011;27061;41.648;24.568;2023-02-28T01:49:44;59.45;;;7.10;;
41311;SDS011;27061;41.648;24.568;2023-02-28T01:52:11;74.35;;;7.32;;
41311;SDS011;27061;41.648;24.568;2023-02-28T01:54:46;63.25;;;9.10;;
41311;SDS011;27061;41.648;24.568;2023-02-28T01:57:18;57.53;;;6.63;;
41311;SDS011;27061;41.648;24.568;2023-02-28T01:59:59;48.50;;;6.40;;
41311;SDS011;27061;41.648;24.568;2023-02-28T02:05:09;48.15;;;5.30;;
41311;SDS011;27061;41.648;24.568;2023-02-28T02:10:13;71.07;;;8.27;;
41311;SDS011;27061;41.648;24.568;2023-02-28T02:13:05;68.07;;;6.72;;
41311;SDS011;27061;41.648;24.568;2023-02-28T02:18:37;54.97;;;6.35;;
41311;SDS011;27061;41.648;24.568;2023-02-28T02:37:25;59.03;;;6.25;;
41311;SDS011;27061;41.648;24.568;2023-02-28T02:45:25;74.25;;;8.85;;
41311;SDS011;27061;41.648;24.568;2023-02-28T02:48:03;56.13;;;7.13;;
41311;SDS011;27061;41.648;24.568;2023-02-28T02:50:35;56.33;;;6.25;;
41311;SDS011;27061;41.648;24.568;2023-02-28T02:53:06;57.40;;;6.85;;
41311;SDS011;27061;41.648;24.568;2023-02-28T02:55:38;58.35;;;7.30;;
41311;SDS011;27061;41.648;24.568;2023-02-28T02:58:16;39.30;;;5.32;;
41311;SDS011;27061;41.648;24.568;2023-02-28T03:00:49;57.47;;;5.88;;
41311;SDS011;27061;41.648;24.568;2023-02-28T03:03:20;75.55;;;8.73;;
41311;SDS011;27061;41.648;24.568;2023-02-28T03:05:56;64.32;;;6.90;;
41311;SDS011;27061;41.648;24.568;2023-02-28T03:08:25;58.50;;;6.80;;
41311;SDS011;27061;41.648;24.568;2023-02-28T03:10:59;43.17;;;5.40;;
41311;SDS011;27061;41.648;24.568;2023-02-28T03:13:40;48.30;;;6.60;;
41311;SDS011;27061;41.648;24.568;2023-02-28T03:21:51;53.08;;;6.25;;
41311;SDS011;27061;41.648;24.568;2023-02-28T03:24:45;66.13;;;8.32;;
41311;SDS011;27061;41.648;24.568;2023-02-28T03:27:29;55.33;;;6.70;;
41311;SDS011;27061;41.648;24.568;2023-02-28T03:30:10;53.88;;;9.13;;
41311;SDS011;27061;41.648;24.568;2023-02-28T03:35:26;68.50;;;6.47;;
41311;SDS011;27061;41.648;24.568;2023-02-28T03:38:41;44.08;;;6.28;;
41311;SDS011;27061;41.648;24.568;2023-02-28T03:41:08;55.70;;;6.30;;
41311;SDS011;27061;41.648;24.568;2023-02-28T03:43:41;64.93;;;7.40;;
41311;SDS011;27061;41.648;24.568;2023-02-28T03:46:16;65.20;;;7.00;;
41311;SDS011;27061;41.648;24.568;2023-02-28T03:48:55;54.92;;;5.97;;
41311;SDS011;27061;41.648;24.568;2023-02-28T03:51:29;49.53;;;5.90;;
41311;SDS011;27061;41.648;24.568;2023-02-28T03:53:58;62.38;;;6.93;;
41311;SDS011;27061;41.648;24.568;2023-02-28T03:56:32;44.10;;;5.60;;
41311;SDS011;27061;41.648;24.568;2023-02-28T03:59:05;49.75;;;6.72;;
41311;SDS011;27061;41.648;24.568;2023-02-28T04:01:47;53.20;;;5.35;;
41311;SDS011;27061;41.648;24.568;2023-02-28T04:04:15;50.63;;;7.13;;
41311;SDS011;27061;41.648;24.568;2023-02-28T04:06:44;52.92;;;6.20;;
41311;SDS011;27061;41.648;24.568;2023-02-28T04:09:12;40.30;;;6.97;;
41311;SDS011;27061;41.648;24.568;2023-02-28T04:11:42;64.22;;;6.88;;
41311;SDS011;27061;41.648;24.568;2023-02-28T04:14:11;63.53;;;7.75;;
41311;SDS011;27061;41.648;24.568;2023-02-28T04:16:39;49.65;;;7.45;;
41311;SDS011;27061;41.648;24.568;2023-02-28T04:19:09;54.90;;;6.40;;
41311;SDS011;27061;41.648;24.568;2023-02-28T04:21:38;38.42;;;5.22;;
41311;SDS011;27061;41.648;24.568;2023-02-28T04:24:11;55.72;;;7.10;;
41311;SDS011;27061;41.648;24.568;2023-02-28T04:26:41;55.65;;;6.57;;
41311;SDS011;27061;41.648;24.568;2023-02-28T04:29:11;43.88;;;7.28;;
41311;SDS011;27061;41.648;24.568;2023-02-28T04:31:39;65.97;;;6.60;;
41311;SDS011;27061;41.648;24.568;2023-02-28T04:34:07;61.38;;;7.03;;
41311;SDS011;27061;41.648;24.568;2023-02-28T04:36:34;64.25;;;7.32;;
41311;SDS011;27061;41.648;24.568;2023-02-28T04:39:01;71.30;;;8.02;;
41311;SDS011;27061;41.648;24.568;2023-02-28T04:41:29;88.80;;;8.40;;
41311;SDS011;27061;41.648;24.568;2023-02-28T04:43:58;70.47;;;7.97;;
41311;SDS011;27061;41.648;24.568;2023-02-28T04:46:25;57.75;;;7.50;;
41311;SDS011;27061;41.648;24.568;2023-02-28T04:48:52;57.13;;;7.22;;
41311;SDS011;27061;41.648;24.568;2023-02-28T04:51:21;45.22;;;5.47;;
41311;SDS011;27061;41.648;24.568;2023-02-28T04:53:48;53.83;;;8.25;;
41311;SDS011;27061;41.648;24.568;2023-02-28T04:56:16;71.35;;;7.28;;
41311;SDS011;27061;41.648;24.568;2023-02-28T04:58:44;52.92;;;5.70;;
41311;SDS011;27061;41.648;24.568;2023-02-28T05:01:20;41.58;;;5.80;;
41311;SDS011;27061;41.648;24.568;2023-02-28T05:03:49;65.30;;;7.03;;
41311;SDS011;27061;41.648;24.568;2023-02-28T05:06:18;53.70;;;6.60;;
41311;SDS011;27061;41.648;24.568;2023-02-28T05:08:46;76.53;;;8.00;;
41311;SDS011;27061;41.648;24.568;2023-02-28T05:11:18;71.53;;;7.72;;
41311;SDS011;27061;41.648;24.568;2023-02-28T05:13:48;65.97;;;6.93;;
41311;SDS011;27061;41.648;24.568;2023-02-28T05:16:15;114.00;;;9.05;;
41311;SDS011;27061;41.648;24.568;2023-02-28T05:18:43;51.40;;;8.07;;
41311;SDS011;27061;41.648;24.568;2023-02-28T05:21:21;68.07;;;7.55;;
41311;SDS011;27061;41.648;24.568;2023-02-28T05:24:04;46.42;;;5.72;;
41311;SDS011;27061;41.648;24.568;2023-02-28T05:26:39;80.63;;;8.45;;
41311;SDS011;27061;41.648;24.568;2023-02-28T05:29:08;77.15;;;7.60;;
41311;SDS011;27061;41.648;24.568;2023-02-28T05:31:37;61.13;;;7.28;;
41311;SDS011;27061;41.648;24.568;2023-02-28T05:34:05;71.18;;;7.97;;
41311;SDS011;27061;41.648;24.568;2023-02-28T05:36:32;78.95;;;6.88;;
41311;SDS011;27061;41.648;24.568;2023-02-28T05:38:59;83.05;;;8.43;;
41311;SDS011;27061;41.648;24.568;2023-02-28T05:41:26;185.80;;;14.82;;
41311;SDS011;27061;41.648;24.568;2023-02-28T05:43:54;66.30;;;7.40;;
41311;SDS011;27061;41.648;24.568;2023-02-28T05:46:21;51.38;;;5.75;;
41311;SDS011;27061;41.648;24.568;2023-02-28T05:48:48;77.63;;;7.38;;
41311;SDS011;27061;41.648;24.568;2023-02-28T05:51:16;57.33;;;7.85;;
41311;SDS011;27061;41.648;24.568;2023-02-28T05:53:44;68.32;;;7.93;;
41311;SDS011;27061;41.648;24.568;2023-02-28T05:56:11;56.72;;;6.95;;
41311;SDS011;27061;41.648;24.568;2023-02-28T05:58:41;67.85;;;7.13;;
41311;SDS011;27061;41.648;24.568;2023-02-28T06:01:51;54.55;;;7.45;;
41311;SDS011;27061;41.648;24.568;2023-02-28T06:04:05;81.35;;;8.07;;
41311;SDS011;27061;41.648;24.568;2023-02-28T06:06:45;56.47;;;6.00;;
41311;SDS011;27061;41.648;24.568;2023-02-28T06:09:13;73.80;;;8.85;;
41311;SDS011;27061;41.648;24.568;2023-02-28T06:11:40;88.43;;;8.25;;
41311;SDS011;27061;41.648;24.568;2023-02-28T06:14:09;65.60;;;7.95;;
41311;SDS011;27061;41.648;24.568;2023-02-28T06:16:41;75.38;;;7.63;;
41311;SDS011;27061;41.648;24.568;2023-02-28T06:19:08;85.60;;;10.10;;
41311;SDS011;27061;41.648;24.568;2023-02-28T06:21:36;47.47;;;7.30;;
41311;SDS011;27061;41.648;24.568;2023-02-28T06:24:04;58.10;;;8.55;;
41311;SDS011;27061;41.648;24.568;2023-02-28T06:26:31;70.10;;;9.95;;
41311;SDS011;27061;41.648;24.568;2023-02-28T06:28:58;70.18;;;8.27;;
41311;SDS011;27061;41.648;24.568;2023-02-28T06:31:27;51.90;;;8.75;;
41311;SDS011;27061;41.648;24.568;2023-02-28T06:33:56;61.85;;;8.32;;
41311;SDS011;27061;41.648;24.568;2023-02-28T06:36:23;77.13;;;9.80;;
41311;SDS011;27061;41.648;24.568;2023-02-28T06:38:50;75.97;;;9.10;;
41311;SDS011;27061;41.648;24.568;2023-02-28T06:41:22;50.40;;;8.15;;
41311;SDS011;27061;41.648;24.568;2023-02-28T06:43:50;144.30;;;13.68;;
41311;SDS011;27061;41.648;24.568;2023-02-28T06:46:17;108.20;;;9.80;;
41311;SDS011;27061;41.648;24.568;2023-02-28T06:48:44;124.80;;;10.93;;
41311;SDS011;27061;41.648;24.568;2023-02-28T06:51:13;66.25;;;9.63;;
41311;SDS011;27061;41.648;24.568;2023-02-28T06:53:42;59.08;;;9.18;;
41311;SDS011;27061;41.648;24.568;2023-02-28T06:56:11;77.80;;;10.70;;
41311;SDS011;27061;41.648;24.568;2023-02-28T06:58:39;80.40;;;10.15;;
41311;SDS011;27061;41.648;24.568;2023-02-28T07:01:07;134.70;;;11.13;;
41311;SDS011;27061;41.648;24.568;2023-02-28T07:03:35;58.15;;;8.02;;
41311;SDS011;27061;41.648;24.568;2023-02-28T07:06:04;64.82;;;8.77;;
41311;SDS011;27061;41.648;24.568;2023-02-28T07:08:32;59.25;;;8.38;;
41311;SDS011;27061;41.648;24.568;2023-02-28T07:11:00;107.07;;;9.70;;
41311;SDS011;27061;41.648;24.568;2023-02-28T07:13:27;95.05;;;10.15;;
41311;SDS011;27061;41.648;24.568;2023-02-28T07:15:55;69.25;;;7.32;;
41311;SDS011;27061;41.648;24.568;2023-02-28T07:18:26;57.97;;;8.40;;
41311;SDS011;27061;41.648;24.568;2023-02-28T07:20:54;58.28;;;8.55;;
41311;SDS011;27061;41.648;24.568;2023-02-28T07:23:21;48.13;;;9.02;;
41311;SDS011;27061;41.648;24.568;2023-02-28T07:25:50;42.38;;;7.70;;
41311;SDS011;27061;41.648;24.568;2023-02-28T07:28:17;48.88;;;9.38;;
41311;SDS011;27061;41.648;24.568;2023-02-28T07:30:44;70.30;;;9.93;;
41311;SDS011;27061;41.648;24.568;2023-02-28T07:33:12;56.45;;;8.07;;
41311;SDS011;27061;41.648;24.568;2023-02-28T07:35:39;48.38;;;7.57;;
41311;SDS011;27061;41.648;24.568;2023-02-28T07:38:06;44.42;;;7.65;;
41311;SDS011;27061;41.648;24.568;2023-02-28T07:40:34;56.67;;;8.85;;
41311;SDS011;27061;41.648;24.568;2023-02-28T07:43:02;63.58;;;14.48;;
41311;SDS011;27061;41.648;24.568;2023-02-28T07:45:31;58.22;;;8.15;;
41311;SDS011;27061;41.648;24.568;2023-02-28T07:48:01;39.80;;;7.78;;
41311;SDS011;27061;41.648;24.568;2023-02-28T07:50:28;48.58;;;7.50;;
41311;SDS011;27061;41.648;24.568;2023-02-28T07:52:58;51.97;;;7.88;;
41311;SDS011;27061;41.648;24.568;2023-02-28T07:55:25;48.95;;;7.63;;
41311;SDS011;27061;41.648;24.568;2023-02-28T07:57:53;72.03;;;13.55;;
41311;SDS011;27061;41.648;24.568;2023-02-28T08:00:20;87.53;;;12.52;;
41311;SDS011;27061;41.648;24.568;2023-02-28T08:02:48;45.85;;;8.25;;
41311;SDS011;27061;41.648;24.568;2023-02-28T08:05:15;42.28;;;8.10;;
41311;SDS011;27061;41.648;24.568;2023-02-28T08:07:46;43.00;;;7.15;;
41311;SDS011;27061;41.648;24.568;2023-02-28T08:10:14;38.55;;;7.38;;
41311;SDS011;27061;41.648;24.568;2023-02-28T08:12:41;42.45;;;7.70;;
41311;SDS011;27061;41.648;24.568;2023-02-28T08:15:08;62.25;;;8.68;;
41311;SDS011;27061;41.648;24.568;2023-02-28T08:17:36;52.72;;;8.73;;
41311;SDS011;27061;41.648;24.568;2023-02-28T08:20:03;48.30;;;7.40;;
41311;SDS011;27061;41.648;24.568;2023-02-28T08:22:30;43.22;;;5.50;;
41311;SDS011;27061;41.648;24.568;2023-02-28T08:24:58;39.22;;;7.82;;
41311;SDS011;27061;41.648;24.568;2023-02-28T08:27:25;43.83;;;7.70;;
41311;SDS011;27061;41.648;24.568;2023-02-28T08:29:52;41.10;;;6.43;;
41311;SDS011;27061;41.648;24.568;2023-02-28T08:32:19;35.95;;;7.40;;
41311;SDS011;27061;41.648;24.568;2023-02-28T08:34:55;42.45;;;7.50;;
41311;SDS011;27061;41.648;24.568;2023-02-28T08:37:22;33.03;;;5.68;;
41311;SDS011;27061;41.648;24.568;2023-02-28T08:39:50;32.85;;;7.18;;
41311;SDS011;27061;41.648;24.568;2023-02-28T08:42:21;58.50;;;7.45;;
41311;SDS011;27061;41.648;24.568;2023-02-28T08:44:48;38.30;;;6.53;;
41311;SDS011;27061;41.648;24.568;2023-02-28T08:47:15;35.90;;;5.47;;
41311;SDS011;27061;41.648;24.568;2023-02-28T08:49:42;47.42;;;6.82;;
41311;SDS011;27061;41.648;24.568;2023-02-28T08:52:09;30.10;;;6.78;;
41311;SDS011;27061;41.648;24.568;2023-02-28T08:54:36;28.73;;;6.90;;
41311;SDS011;27061;41.648;24.568;2023-02-28T08:57:03;39.97;;;6.75;;
41311;SDS011;27061;41.648;24.568;2023-02-28T08:59:30;44.72;;;6.80;;
41311;SDS011;27061;41.648;24.568;2023-02-28T09:01:58;43.05;;;7.55;;
41311;SDS011;27061;41.648;24.568;2023-02-28T09:04:25;30.48;;;6.13;;
41311;SDS011;27061;41.648;24.568;2023-02-28T09:06:52;51.42;;;8.02;;
41311;SDS011;27061;41.648;24.568;2023-02-28T09:09:19;38.03;;;6.13;;
41311;SDS011;27061;41.648;24.568;2023-02-28T09:11:46;32.47;;;6.10;;
41311;SDS011;27061;41.648;24.568;2023-02-28T09:14:13;37.85;;;6.40;;
41311;SDS011;27061;41.648;24.568;2023-02-28T09:16:40;31.30;;;5.10;;
41311;SDS011;27061;41.648;24.568;2023-02-28T09:19:10;28.00;;;5.07;;
41311;SDS011;27061;41.648;24.568;2023-02-28T09:21:38;35.83;;;6.32;;
41311;SDS011;27061;41.648;24.568;2023-02-28T09:24:06;38.58;;;5.13;;
41311;SDS011;27061;41.648;24.568;2023-02-28T09:26:34;28.85;;;6.30;;
41311;SDS011;27061;41.648;24.568;2023-02-28T09:29:12;32.22;;;6.25;;
41311;SDS011;27061;41.648;24.568;2023-02-28T09:31:41;46.75;;;8.00;;
41311;SDS011;27061;41.648;24.568;2023-02-28T09:34:08;47.38;;;7.15;;
41311;SDS011;27061;41.648;24.568;2023-02-28T09:36:35;45.17;;;5.78;;
41311;SDS011;27061;41.648;24.568;2023-02-28T09:39:11;30.45;;;6.35;;
41311;SDS011;27061;41.648;24.568;2023-02-28T09:41:41;38.22;;;7.20;;
41311;SDS011;27061;41.648;24.568;2023-02-28T09:44:29;35.92;;;5.68;;
41311;SDS011;27061;41.648;24.568;2023-02-28T09:46:59;35.15;;;5.75;;
41311;SDS011;27061;41.648;24.568;2023-02-28T09:49:34;36.58;;;6.00;;
41311;SDS011;27061;41.648;24.568;2023-02-28T09:52:10;72.82;;;8.20;;
41311;SDS011;27061;41.648;24.568;2023-02-28T09:54:42;30.00;;;6.07;;
41311;SDS011;27061;41.648;24.568;2023-02-28T10:05:22;38.97;;;6.35;;
41311;SDS011;27061;41.648;24.568;2023-02-28T10:10:40;40.55;;;6.15;;
41311;SDS011;27061;41.648;24.568;2023-02-28T10:13:14;34.40;;;5.78;;
41311;SDS011;27061;41.648;24.568;2023-02-28T10:15:43;24.40;;;4.72;;
41311;SDS011;27061;41.648;24.568;2023-02-28T10:18:14;37.67;;;5.85;;
41311;SDS011;27061;41.648;24.568;2023-02-28T10:20:47;36.20;;;6.07;;
41311;SDS011;27061;41.648;24.568;2023-02-28T10:23:32;34.28;;;6.32;;
41311;SDS011;27061;41.648;24.568;2023-02-28T10:26:09;30.00;;;5.70;;
41311;SDS011;27061;41.648;24.568;2023-02-28T10:28:39;32.85;;;7.15;;
41311;SDS011;27061;41.648;24.568;2023-02-28T10:31:08;48.22;;;10.32;;
41311;SDS011;27061;41.648;24.568;2023-02-28T10:33:41;29.92;;;7.32;;
41311;SDS011;27061;41.648;24.568;2023-02-28T10:36:09;34.85;;;6.68;;
41311;SDS011;27061;41.648;24.568;2023-02-28T10:38:43;50.88;;;6.70;;
41311;SDS011;27061;41.648;24.568;2023-02-28T10:41:15;36.92;;;6.68;;
41311;SDS011;27061;41.648;24.568;2023-02-28T10:43:53;29.85;;;6.72;;
41311;SDS011;27061;41.648;24.568;2023-02-28T10:46:40;26.13;;;5.93;;
41311;SDS011;27061;41.648;24.568;2023-02-28T10:49:17;31.92;;;6.32;;
41311;SDS011;27061;41.648;24.568;2023-02-28T10:51:57;37.90;;;7.05;;
41311;SDS011;27061;41.648;24.568;2023-02-28T10:54:28;36.10;;;6.63;;
41311;SDS011;27061;41.648;24.568;2023-02-28T11:00:08;25.02;;;6.68;;
41311;SDS011;27061;41.648;24.568;2023-02-28T11:02:42;30.63;;;6.85;;
41311;SDS011;27061;41.648;24.568;2023-02-28T11:05:30;42.00;;;5.95;;
41311;SDS011;27061;41.648;24.568;2023-02-28T11:08:06;42.25;;;6.68;;
41311;SDS011;27061;41.648;24.568;2023-02-28T11:10:39;46.78;;;7.28;;
41311;SDS011;27061;41.648;24.568;2023-02-28T11:13:17;34.63;;;6.78;;
41311;SDS011;27061;41.648;24.568;2023-02-28T11:15:50;34.80;;;7.07;;
41311;SDS011;27061;41.648;24.568;2023-02-28T11:18:27;46.88;;;8.15;;
41311;SDS011;27061;41.648;24.568;2023-02-28T11:20:58;39.83;;;6.15;;
41311;SDS011;27061;41.648;24.568;2023-02-28T11:23:28;28.30;;;6.50;;
41311;SDS011;27061;41.648;24.568;2023-02-28T11:25:59;40.90;;;7.40;;
41311;SDS011;27061;41.648;24.568;2023-02-28T11:28:29;29.27;;;7.03;;
41311;SDS011;27061;41.648;24.568;2023-02-28T11:33:41;40.22;;;7.85;;
41311;SDS011;27061;41.648;24.568;2023-02-28T11:36:13;32.42;;;6.25;;
41311;SDS011;27061;41.648;24.568;2023-02-28T11:38:51;38.83;;;6.90;;
41311;SDS011;27061;41.648;24.568;2023-02-28T11:43:58;32.95;;;6.63;;
41311;SDS011;27061;41.648;24.568;2023-02-28T11:46:56;27.25;;;6.22;;
41311;SDS011;27061;41.648;24.568;2023-02-28T11:57:52;52.30;;;8.27;;
41311;SDS011;27061;41.648;24.568;2023-02-28T12:03:27;14.05;;;3.35;;
41311;SDS011;27061;41.648;24.568;2023-02-28T12:06:09;22.17;;;4.80;;
41311;SDS011;27061;41.648;24.568;2023-02-28T12:11:45;17.80;;;3.95;;
41311;SDS011;27061;41.648;24.568;2023-02-28T12:19:47;20.17;;;5.47;;
41311;SDS011;27061;41.648;24.568;2023-02-28T12:27:47;10.02;;;3.92;;
41311;SDS011;27061;41.648;24.568;2023-02-28T12:38:31;11.48;;;4.43;;
41311;SDS011;27061;41.648;24.568;2023-02-28T12:43:48;11.27;;;4.93;;
41311;SDS011;27061;41.648;24.568;2023-02-28T12:49:09;9.55;;;2.85;;
41311;SDS011;27061;41.648;24.568;2023-02-28T12:51:42;4.03;;;1.45;;
41311;SDS011;27061;41.648;24.568;2023-02-28T12:54:17;5.88;;;1.55;;
41311;SDS011;27061;41.648;24.568;2023-02-28T12:59:53;5.47;;;3.15;;
41311;SDS011;27061;41.648;24.568;2023-02-28T13:11:41;7.78;;;4.40;;
41311;SDS011;27061;41.648;24.568;2023-02-28T13:14:35;10.63;;;3.95;;
41311;SDS011;27061;41.648;24.568;2023-02-28T13:19:34;10.80;;;1.70;;
41311;SDS011;27061;41.648;24.568;2023-02-28T13:22:04;2.78;;;1.30;;
41311;SDS011;27061;41.648;24.568;2023-02-28T13:24:50;6.32;;;1.10;;
41311;SDS011;27061;41.648;24.568;2023-02-28T13:27:23;3.25;;;1.35;;
41311;SDS011;27061;41.648;24.568;2023-02-28T13:30:02;4.10;;;1.25;;
41311;SDS011;27061;41.648;24.568;2023-02-28T13:33:23;1.42;;;0.98;;
41311;SDS011;27061;41.648;24.568;2023-02-28T13:38:47;1.55;;;0.90;;
41311;SDS011;27061;41.648;24.568;2023-02-28T13:52:10;2.88;;;0.93;;
41311;SDS011;27061;41.648;24.568;2023-02-28T14:05:37;3.03;;;0.90;;
41311;SDS011;27061;41.648;24.568;2023-02-28T14:08:06;12.13;;;1.50;;
41311;SDS011;27061;41.648;24.568;2023-02-28T14:10:44;8.98;;;1.40;;
41311;SDS011;27061;41.648;24.568;2023-02-28T14:16:04;3.28;;;1.35;;
41311;SDS011;27061;41.648;24.568;2023-02-28T14:18:34;4.45;;;1.17;;
41311;SDS011;27061;41.648;24.568;2023-02-28T14:21:10;2.85;;;1.15;;
41311;SDS011;27061;41.648;24.568;2023-02-28T14:32:25;1.20;;;1.08;;
41311;SDS011;27061;41.648;24.568;2023-02-28T14:35:05;1.98;;;0.82;;
41311;SDS011;27061;41.648;24.568;2023-02-28T14:37:46;1.00;;;0.90;;
41311;SDS011;27061;41.648;24.568;2023-02-28T14:40:21;11.10;;;0.98;;
41311;SDS011;27061;41.648;24.568;2023-02-28T14:43:04;1.17;;;0.50;;
41311;SDS011;27061;41.648;24.568;2023-02-28T14:45:33;11.25;;;0.68;;
41311;SDS011;27061;41.648;24.568;2023-02-28T14:48:03;2.75;;;0.70;;
41311;SDS011;27061;41.648;24.568;2023-02-28T14:50:36;2.13;;;0.77;;
41311;SDS011;27061;41.648;24.568;2023-02-28T14:53:04;2.78;;;0.90;;
41311;SDS011;27061;41.648;24.568;2023-02-28T14:55:43;1.92;;;0.60;;
41311;SDS011;27061;41.648;24.568;2023-02-28T15:00:51;15.98;;;1.73;;
41311;SDS011;27061;41.648;24.568;2023-02-28T15:06:01;20.15;;;1.67;;
41311;SDS011;27061;41.648;24.568;2023-02-28T15:08:31;22.80;;;1.38;;
41311;SDS011;27061;41.648;24.568;2023-02-28T15:11:13;2.20;;;0.82;;
41311;SDS011;27061;41.648;24.568;2023-02-28T15:13:46;3.58;;;0.57;;
41311;SDS011;27061;41.648;24.568;2023-02-28T15:16:17;2.75;;;0.60;;
41311;SDS011;27061;41.648;24.568;2023-02-28T15:18:49;2.72;;;0.50;;
41311;SDS011;27061;41.648;24.568;2023-02-28T15:21:36;17.13;;;0.90;;
41311;SDS011;27061;41.648;24.568;2023-02-28T15:24:26;25.30;;;1.67;;
41311;SDS011;27061;41.648;24.568;2023-02-28T15:26:54;0.40;;;0.40;;
41311;SDS011;27061;41.648;24.568;2023-02-28T15:29:25;18.15;;;1.63;;
41311;SDS011;27061;41.648;24.568;2023-02-28T15:32:04;5.65;;;1.00;;
41311;SDS011;27061;41.648;24.568;2023-02-28T15:34:36;3.65;;;0.50;;
41311;SDS011;27061;41.648;24.568;2023-02-28T15:40:05;30.27;;;1.42;;
41311;SDS011;27061;41.648;24.568;2023-02-28T15:42:38;15.07;;;0.88;;
41311;SDS011;27061;41.648;24.568;2023-02-28T15:45:06;10.43;;;0.60;;
41311;SDS011;27061;41.648;24.568;2023-02-28T15:47:55;1.48;;;0.77;;
41311;SDS011;27061;41.648;24.568;2023-02-28T15:50:28;2.83;;;0.60;;
41311;SDS011;27061;41.648;24.568;2023-02-28T15:52:57;4.28;;;0.93;;
41311;SDS011;27061;41.648;24.568;2023-02-28T15:55:26;1.20;;;0.70;;
41311;SDS011;27061;41.648;24.568;2023-02-28T15:57:55;17.40;;;1.25;;
41311;SDS011;27061;41.648;24.568;2023-02-28T16:00:26;4.22;;;0.80;;
41311;SDS011;27061;41.648;24.568;2023-02-28T16:02:54;2.45;;;1.17;;
41311;SDS011;27061;41.648;24.568;2023-02-28T16:08:01;6.07;;;1.00;;
41311;SDS011;27061;41.648;24.568;2023-02-28T16:10:37;10.05;;;1.40;;
41311;SDS011;27061;41.648;24.568;2023-02-28T16:13:05;18.20;;;1.35;;
41311;SDS011;27061;41.648;24.568;2023-02-28T16:15:35;3.88;;;0.80;;
41311;SDS011;27061;41.648;24.568;2023-02-28T16:18:12;24.95;;;1.63;;
41311;SDS011;27061;41.648;24.568;2023-02-28T16:20:39;10.25;;;2.35;;
41311;SDS011;27061;41.648;24.568;2023-02-28T16:23:06;10.55;;;5.65;;
41311;SDS011;27061;41.648;24.568;2023-02-28T16:25:36;5.82;;;3.80;;
41311;SDS011;27061;41.648;24.568;2023-02-28T16:28:07;23.70;;;2.78;;
41311;SDS011;27061;41.648;24.568;2023-02-28T16:30:59;13.93;;;4.00;;
41311;SDS011;27061;41.648;24.568;2023-02-28T16:33:29;4.47;;;2.45;;
41311;SDS011;27061;41.648;24.568;2023-02-28T16:35:57;12.07;;;2.70;;
41311;SDS011;27061;41.648;24.568;2023-02-28T16:38:24;8.00;;;2.65;;
41311;SDS011;27061;41.648;24.568;2023-02-28T16:40:51;10.70;;;4.05;;
41311;SDS011;27061;41.648;24.568;2023-02-28T16:43:23;6.10;;;1.88;;
41311;SDS011;27061;41.648;24.568;2023-02-28T16:45:56;10.07;;;1.52;;
41311;SDS011;27061;41.648;24.568;2023-02-28T16:48:27;8.37;;;1.73;;
41311;SDS011;27061;41.648;24.568;2023-02-28T16:50:54;55.10;;;9.07;;
41311;SDS011;27061;41.648;24.568;2023-02-28T16:53:21;24.30;;;6.80;;
41311;SDS011;27061;41.648;24.568;2023-02-28T16:55:48;10.70;;;3.58;;
41311;SDS011;27061;41.648;24.568;2023-02-28T16:58:17;34.05;;;4.57;;
41311;SDS011;27061;41.648;24.568;2023-02-28T17:00:45;22.35;;;5.82;;
41311;SDS011;27061;41.648;24.568;2023-02-28T17:03:20;14.07;;;7.55;;
41311;SDS011;27061;41.648;24.568;2023-02-28T17:05:58;18.52;;;6.68;;
41311;SDS011;27061;41.648;24.568;2023-02-28T17:08:26;9.00;;;3.42;;
41311;SDS011;27061;41.648;24.568;2023-02-28T17:10:55;13.90;;;8.98;;
41311;SDS011;27061;41.648;24.568;2023-02-28T17:13:22;19.00;;;4.75;;
41311;SDS011;27061;41.648;24.568;2023-02-28T17:15:49;1.90;;;1.23;;
41311;SDS011;27061;41.648;24.568;2023-02-28T17:18:18;3.25;;;1.92;;
41311;SDS011;27061;41.648;24.568;2023-02-28T17:20:46;9.15;;;1.80;;
41311;SDS011;27061;41.648;24.568;2023-02-28T17:23:13;53.63;;;32.55;;
41311;SDS011;27061;41.648;24.568;2023-02-28T17:25:40;34.95;;;19.13;;
41311;SDS011;27061;41.648;24.568;2023-02-28T17:28:08;46.75;;;23.73;;